Aeroporto :
LOGIN :

Iscrizione | Disclaimer

   EN    FR    IT 

 










Sommario :    VFR   VFR Marginale   IFR   IFR Intensivo   IFR Molto Intensivo
Visibilità : 
Base nubi : 
>= 8 km
>= 3000ft
5 / 8 km
1000 / 3000 ft
1500m / 5 km
500 / 1000 ft
800 / 1500m
200 / 500 ft
< 800m
< 200 ft
Simboli :   Temporali  Nebbia  Neve Forte  Precipitazioni Forti  Vento > 20 kt
SIGMETs :   Varie  Temporali  Ghiacco  Turbolenza  Onda orograficha  Ceneri Vulcaniche






- Altitudine del aeroporto : 609 ft
- Codice IATA : BJZ


LEBZ - Badajoz

ULTIMO METAR :
  • 090800Z AUTO 26004KT 7000 2900SE -RA SCT044 17/16 Q1018

METARs OBSOLETI :
  • 090700Z AUTO 24003KT 9999 4500SE NSC 17/16 Q1018
  • 090600Z AUTO 22003KT 6000 SCT049 16/16 Q1017

TAF TAF LEBZ
Valido dal 09 a 06 ore il 10 a 06 ore UTC


090500Z 0906/1006 27005KT 9999 SCT020 BKN035 TX18/0915Z TN14/1006Z
PROB40
TEMPO 0906/0919 4000 RA BKN014
PROB30
TEMPO 1000/1006 4000 -DZ BR BKN008



MetMap, La meteo Aeronautica in un colpo d'occhio ! - Copyright ORBIFLY Dicembre 2007 - Disclaimer

ORBIFLY MET'MAP TEAM :

Programmazione e sviluppo : Alexandra Zaïnal
Concezione : Baudouin d'Aumeries
Aiuto per la programmazione : Marc-Olivier Méhu
Supporto tecnico e logistico : Manuel Goepfert
Aiuto per la traduzione : Arnaldo La Scala

Contatto : metmap@orbifly.com




FONTI E CREDITI :

   NOAA